Time;durP1;ratioP1;P1;durP2;ratioP2;P2;SDS_P1;SDS_P2;PMS_P1;PMS_P2;Temp;Humidity;BMP_temperature;BMP_pressure;BME280_temperature;BME280_humidity;BME280_pressure;Samples;Min_cycle;Max_cycle;Signal;HPM_P1;HPM_P2
2022/02/11 00:05:08;;;;;;;8.87;6.13;;;7.90;99.90;;;;;;5077699;28;20543;-66
2022/02/11 00:09:19;;;;;;;9.13;6.17;;;8.00;99.90;;;;;;5079097;28;20468;-66
2022/02/11 00:11:45;;;;;;;10.33;6.50;;;8.00;99.90;;;;;;5081829;28;20209;-66
2022/02/11 00:14:10;;;;;;;11.30;5.93;;;8.00;99.90;;;;;;5077781;28;20306;-66
2022/02/11 00:16:38;;;;;;;10.17;6.33;;;8.00;99.90;;;;;;5076266;28;20244;-66
2022/02/11 00:19:04;;;;;;;8.00;6.03;;;8.00;99.90;;;;;;5074463;28;20183;-66
2022/02/11 00:21:31;;;;;;;10.70;6.53;;;8.00;99.90;;;;;;5076445;28;20425;-66
2022/02/11 00:23:57;;;;;;;11.20;6.90;;;8.00;99.90;;;;;;5076264;28;20468;-66
2022/02/11 00:26:29;;;;;;;10.03;5.90;;;8.00;99.90;;;;;;5076877;28;20440;-66
2022/02/11 00:29:48;;;;;;;8.23;6.13;;;8.00;99.90;;;;;;5076981;28;20436;-66
2022/02/11 00:34:27;;;;;;;8.60;5.70;;;7.90;99.90;;;;;;5077418;28;20468;-66
2022/02/11 00:37:06;;;;;;;7.07;5.63;;;7.90;99.90;;;;;;5076061;28;20459;-66
2022/02/11 00:40:10;;;;;;;7.80;5.20;;;7.90;99.90;;;;;;5077392;28;20980;-67
2022/02/11 01:03:59;;;;;;;7.63;6.00;;;8.10;99.90;;;;;;5076898;28;20955;-66
2022/02/11 01:06:26;;;;;;;10.00;6.00;;;8.10;99.90;;;;;;5090088;28;20549;-66
2022/02/11 01:08:52;;;;;;;8.23;5.93;;;8.10;99.90;;;;;;5075835;28;20436;-65
2022/02/11 01:11:31;;;;;;;5.10;4.60;;;8.10;99.90;;;;;;5075690;28;20452;-66
2022/02/11 01:13:57;;;;;;;8.33;4.90;;;8.10;99.90;;;;;;5080902;28;20474;-66
2022/02/11 01:16:32;;;;;;;11.93;6.07;;;8.20;99.90;;;;;;5074149;28;20437;-65
2022/02/11 01:19:11;;;;;;;7.77;6.13;;;8.20;99.90;;;;;;5070994;28;20240;-67
2022/02/11 01:21:50;;;;;;;8.53;5.77;;;8.10;99.90;;;;;;5076847;28;20717;-66
2022/02/11 01:35:34;;;;;;;8.80;5.80;;;7.80;99.90;;;;;;5076722;28;20495;-66
2022/02/11 01:53:13;;;;;;;11.33;6.70;;;7.50;99.90;;;;;;5075221;28;20448;-67
2022/02/11 01:56:07;;;;;;;9.50;6.90;;;7.60;99.90;;;;;;5072609;28;20182;-67
2022/02/11 02:23:04;;;;;;;12.47;8.10;;;6.90;99.90;;;;;;5074923;28;20834;-67
2022/02/11 02:25:55;;;;;;;9.33;6.43;;;7.00;99.90;;;;;;5073050;28;20436;-67
2022/02/11 02:34:00;;;;;;;14.43;7.70;;;7.10;99.90;;;;;;5075543;28;20456;-66
2022/02/11 02:50:11;;;;;;;11.63;8.43;;;7.00;99.90;;;;;;5075186;28;20959;-67
2022/02/11 02:58:25;;;;;;;9.77;6.67;;;7.00;99.90;;;;;;5076815;28;20442;-67
2022/02/11 04:59:56;;;;;;;5.83;2.40;;;6.70;99.90;;;;;;5073999;28;20553;-67
2022/02/11 05:02:25;;;;;;;5.47;2.53;;;6.70;99.90;;;;;;5074060;28;20453;-67
2022/02/11 05:04:55;;;;;;;3.30;2.50;;;6.70;99.90;;;;;;5072544;28;20715;-68
2022/02/11 05:07:21;;;;;;;2.57;1.80;;;6.60;99.90;;;;;;5075349;28;20433;-67
2022/02/11 05:09:46;;;;;;;2.80;1.90;;;6.40;99.90;;;;;;5071182;28;20545;-67
2022/02/11 05:12:12;;;;;;;2.27;2.07;;;6.40;99.90;;;;;;5077788;28;20608;-66
2022/02/11 05:14:37;;;;;;;2.43;2.00;;;6.40;99.90;;;;;;5069600;28;20874;-66
2022/02/11 05:17:03;;;;;;;3.03;2.00;;;6.30;99.90;;;;;;5072333;28;20711;-67
2022/02/11 05:19:29;;;;;;;5.40;2.10;;;6.30;99.90;;;;;;5073511;28;20222;-68
2022/02/11 05:21:55;;;;;;;6.80;3.93;;;6.30;99.90;;;;;;5072923;28;20460;-68
2022/02/11 05:24:21;;;;;;;2.40;2.03;;;6.20;99.90;;;;;;5072398;28;20214;-67
2022/02/11 05:26:46;;;;;;;2.93;2.00;;;6.30;99.90;;;;;;5071576;28;20248;-67
2022/02/11 05:29:12;;;;;;;3.17;2.07;;;6.40;99.90;;;;;;5073555;28;20234;-66
2022/02/11 05:31:38;;;;;;;2.70;2.10;;;6.40;99.90;;;;;;5074163;28;20214;-66
2022/02/11 05:34:04;;;;;;;2.40;2.20;;;6.40;99.90;;;;;;5076417;28;20871;-67
2022/02/11 05:36:29;;;;;;;1.80;1.70;;;6.30;99.90;;;;;;5075713;28;20621;-67
2022/02/11 05:38:55;;;;;;;3.17;1.77;;;6.40;99.90;;;;;;5076672;28;20520;-67
2022/02/11 05:41:21;;;;;;;3.83;2.00;;;6.30;99.90;;;;;;5074390;28;20588;-67
2022/02/11 05:43:47;;;;;;;3.10;1.80;;;6.30;99.90;;;;;;5073231;28;20222;-67
2022/02/11 05:46:12;;;;;;;2.93;2.10;;;6.30;99.90;;;;;;5073138;28;20484;-67
2022/02/11 05:48:43;;;;;;;2.87;2.07;;;6.20;99.90;;;;;;5072298;28;21009;-67
2022/02/11 05:51:09;;;;;;;1.93;1.77;;;6.20;99.90;;;;;;5074200;28;20285;-67
2022/02/11 05:53:34;;;;;;;2.00;1.70;;;6.10;99.90;;;;;;5073388;28;20452;-67
2022/02/11 05:56:01;;;;;;;2.27;1.97;;;6.10;99.90;;;;;;5072125;28;20432;-67
2022/02/11 05:58:26;;;;;;;4.80;2.17;;;6.00;99.90;;;;;;5072197;28;20175;-67
2022/02/11 06:00:53;;;;;;;2.67;2.00;;;5.90;99.90;;;;;;5068369;28;20463;-69
2022/02/11 06:03:18;;;;;;;2.50;2.30;;;6.00;99.90;;;;;;5072354;28;20278;-67
2022/02/11 06:05:44;;;;;;;2.20;2.00;;;6.00;99.90;;;;;;5071088;28;20880;-67
2022/02/11 06:08:11;;;;;;;3.40;2.43;;;5.90;99.90;;;;;;5075597;28;20600;-68
2022/02/11 06:10:37;;;;;;;3.57;2.10;;;5.90;99.90;;;;;;5072107;28;20206;-67
2022/02/11 06:13:03;;;;;;;3.73;2.50;;;5.90;99.90;;;;;;5066794;28;20430;-67
2022/02/11 06:15:28;;;;;;;3.83;2.30;;;5.90;99.90;;;;;;5078539;28;20876;-67
2022/02/11 06:17:54;;;;;;;4.97;2.60;;;5.80;99.90;;;;;;5073811;28;20464;-67
2022/02/11 06:20:27;;;;;;;3.50;2.83;;;5.70;99.90;;;;;;5070601;28;20294;-67
2022/02/11 06:22:57;;;;;;;2.50;1.93;;;5.60;99.90;;;;;;5075667;28;20178;-67
2022/02/11 06:25:22;;;;;;;3.40;2.37;;;5.50;99.90;;;;;;5079647;28;20433;-67
2022/02/11 06:27:48;;;;;;;2.97;2.33;;;5.60;99.90;;;;;;5076432;28;20486;-67
2022/02/11 06:30:14;;;;;;;3.00;2.70;;;5.60;99.90;;;;;;5075565;28;20522;-67
2022/02/11 06:32:40;;;;;;;2.73;2.30;;;5.60;99.90;;;;;;5078678;28;20187;-67
2022/02/11 06:35:08;;;;;;;3.50;2.50;;;5.70;99.90;;;;;;5075589;28;20205;-67
2022/02/11 06:37:34;;;;;;;3.13;2.50;;;5.40;99.90;;;;;;5080211;28;20451;-69
2022/02/11 06:40:00;;;;;;;3.80;2.83;;;5.20;99.90;;;;;;5075782;28;20449;-68
2022/02/11 06:42:25;;;;;;;5.30;2.93;;;5.20;99.90;;;;;;5079620;28;20551;-67
2022/02/11 06:44:51;;;;;;;5.10;3.03;;;5.30;99.90;;;;;;5080376;28;20214;-67
2022/02/11 06:47:17;;;;;;;5.10;3.00;;;5.50;99.90;;;;;;5077808;28;20676;-66
2022/02/11 06:49:43;;;;;;;4.80;3.53;;;5.50;99.90;;;;;;5080139;28;20194;-67
2022/02/11 06:52:09;;;;;;;5.87;3.37;;;5.50;99.90;;;;;;5077289;28;20455;-67
2022/02/11 06:54:36;;;;;;;4.53;2.80;;;5.50;99.90;;;;;;5072539;28;20464;-67
2022/02/11 06:57:01;;;;;;;6.30;3.63;;;5.40;99.90;;;;;;5077448;28;20293;-67
2022/02/11 06:59:27;;;;;;;5.90;3.60;;;5.40;99.90;;;;;;5077470;28;20777;-67
2022/02/11 07:01:53;;;;;;;4.03;3.63;;;5.50;99.90;;;;;;5077675;28;20186;-67
2022/02/11 07:04:18;;;;;;;5.80;3.40;;;5.60;99.90;;;;;;5077960;28;20193;-67
2022/02/11 07:06:44;;;;;;;6.83;4.57;;;5.60;99.90;;;;;;5076854;28;20265;-67
2022/02/11 07:09:10;;;;;;;8.30;3.90;;;5.50;99.90;;;;;;5074307;28;22261;-67
2022/02/11 07:11:35;;;;;;;5.20;3.87;;;5.50;99.90;;;;;;5075114;28;20183;-67
2022/02/11 07:14:01;;;;;;;8.13;3.77;;;5.50;99.90;;;;;;5072628;28;20225;-67
2022/02/11 07:16:26;;;;;;;6.33;3.47;;;5.50;99.90;;;;;;5072965;28;20234;-66
2022/02/11 07:18:52;;;;;;;5.30;3.80;;;5.40;99.90;;;;;;5078829;28;20176;-67
2022/02/11 07:21:18;;;;;;;4.33;3.30;;;5.40;99.90;;;;;;5076010;28;20184;-72
2022/02/11 07:23:43;;;;;;;5.30;3.70;;;5.40;99.90;;;;;;5073821;28;20245;-69
2022/02/11 07:26:09;;;;;;;5.33;4.20;;;5.40;99.90;;;;;;5074464;28;20195;-68
2022/02/11 07:28:34;;;;;;;4.27;3.10;;;5.50;99.90;;;;;;5074381;28;20652;-68
2022/02/11 07:31:01;;;;;;;7.17;4.17;;;5.40;99.90;;;;;;5072245;28;20211;-69
2022/02/11 07:33:26;;;;;;;5.60;4.00;;;5.40;99.90;;;;;;5075884;28;20280;-69
2022/02/11 07:35:52;;;;;;;6.30;4.20;;;5.30;99.90;;;;;;5079348;28;20424;-71
2022/02/11 07:38:20;;;;;;;7.73;4.10;;;5.30;99.90;;;;;;5077033;28;20272;-70
2022/02/11 07:40:46;;;;;;;5.60;4.00;;;5.20;99.90;;;;;;5075590;28;20206;-73
2022/02/11 07:43:11;;;;;;;5.10;4.00;;;5.20;99.90;;;;;;5074771;28;20939;-74
2022/02/11 07:45:37;;;;;;;9.07;4.47;;;5.20;99.90;;;;;;5076287;28;20182;-73
2022/02/11 07:48:04;;;;;;;6.83;4.70;;;5.20;99.90;;;;;;5082098;28;20750;-71
2022/02/11 07:50:30;;;;;;;4.93;4.17;;;5.20;99.90;;;;;;5075739;28;20485;-69
2022/02/11 07:52:56;;;;;;;5.37;3.87;;;5.10;99.90;;;;;;5074657;28;21220;-69
2022/02/11 07:57:50;;;;;;;6.10;3.67;;;5.10;99.90;;;;;;5076068;28;20476;-72
2022/02/11 08:00:16;;;;;;;5.53;4.33;;;5.00;99.90;;;;;;5083278;28;20443;-69
2022/02/11 08:02:42;;;;;;;4.97;3.67;;;5.00;99.90;;;;;;5086375;28;20268;-69
2022/02/11 08:05:08;;;;;;;9.10;4.30;;;5.10;99.90;;;;;;5083652;28;20502;-69
2022/02/11 08:07:34;;;;;;;10.93;3.90;;;5.10;99.90;;;;;;5084454;28;20213;-70
2022/02/11 08:10:00;;;;;;;6.03;3.60;;;5.20;99.90;;;;;;5085910;28;20428;-72
2022/02/11 08:12:26;;;;;;;9.63;4.20;;;5.20;99.90;;;;;;5083350;28;20268;-73
2022/02/11 08:14:51;;;;;;;5.23;3.90;;;5.30;99.90;;;;;;5079190;28;20560;-73
2022/02/11 08:17:17;;;;;;;3.97;3.57;;;5.20;99.90;;;;;;5099827;27;20210;-71
2022/02/11 08:19:43;;;;;;;6.00;3.60;;;5.20;99.90;;;;;;5067714;28;20186;-72
2022/02/11 08:22:08;;;;;;;5.10;4.00;;;5.30;99.90;;;;;;5069443;28;20560;-69
2022/02/11 08:24:34;;;;;;;4.60;3.30;;;5.20;99.90;;;;;;5085706;28;20261;-68
2022/02/11 08:27:00;;;;;;;8.27;4.67;;;5.10;99.90;;;;;;5083229;28;20372;-68
2022/02/11 08:29:26;;;;;;;5.30;4.20;;;5.10;99.90;;;;;;5085358;28;20179;-67
2022/02/11 08:31:55;;;;;;;7.33;4.47;;;5.10;99.90;;;;;;5083423;28;20197;-67
2022/02/11 08:34:25;;;;;;;9.40;4.80;;;5.00;99.90;;;;;;5084975;28;20497;-72
2022/02/11 08:36:51;;;;;;;7.60;5.70;;;4.90;99.90;;;;;;5083261;28;20811;-74
2022/02/11 08:39:17;;;;;;;5.70;4.23;;;5.00;99.90;;;;;;5068801;28;20424;-73
2022/02/11 08:41:44;;;;;;;10.70;5.37;;;5.10;99.90;;;;;;5083006;28;20202;-70
2022/02/11 08:44:09;;;;;;;9.40;5.70;;;5.10;99.90;;;;;;5066003;28;20780;-72
2022/02/11 08:46:35;;;;;;;9.10;5.70;;;5.00;99.90;;;;;;5083919;28;20463;-71
2022/02/11 08:49:01;;;;;;;10.83;6.00;;;5.10;99.90;;;;;;5083048;28;20198;-74
2022/02/11 08:51:27;;;;;;;11.13;6.50;;;5.20;99.90;;;;;;5083924;28;20190;-72
2022/02/11 08:53:53;;;;;;;7.80;6.07;;;5.20;99.90;;;;;;5080391;28;20577;-71
2022/02/11 08:56:19;;;;;;;7.70;5.50;;;5.30;99.90;;;;;;5083038;28;20885;-71
2022/02/11 08:58:44;;;;;;;7.50;5.53;;;5.30;99.90;;;;;;5066842;28;20635;-68
2022/02/11 09:01:10;;;;;;;8.73;5.27;;;5.40;99.90;;;;;;5085054;28;20232;-68
2022/02/11 09:03:36;;;;;;;7.53;5.43;;;5.50;99.90;;;;;;5082909;28;20216;-67
2022/02/11 09:06:04;;;;;;;8.77;5.77;;;5.40;99.90;;;;;;5083830;28;21068;-68
2022/02/11 09:08:33;;;;;;;7.60;5.70;;;5.40;99.90;;;;;;5081964;28;20183;-68
2022/02/11 09:10:59;;;;;;;7.40;5.23;;;5.40;99.90;;;;;;5083682;28;20970;-69
2022/02/11 09:13:27;;;;;;;9.40;6.70;;;5.50;99.90;;;;;;5084451;28;20697;-69
2022/02/11 09:15:56;;;;;;;12.73;6.93;;;5.50;99.90;;;;;;5085567;28;20440;-67
2022/02/11 09:18:22;;;;;;;11.13;5.97;;;5.60;99.90;;;;;;5082189;28;20448;-68
2022/02/11 09:20:48;;;;;;;6.10;5.50;;;5.60;99.90;;;;;;5083467;28;20433;-71
2022/02/11 09:23:15;;;;;;;12.60;5.53;;;5.60;99.90;;;;;;5083207;28;20447;-69
2022/02/11 09:25:41;;;;;;;9.40;7.17;;;5.60;99.90;;;;;;5083447;28;20505;-70
2022/02/11 09:28:06;;;;;;;9.27;5.70;;;5.60;99.90;;;;;;5084047;28;20509;-70
2022/02/11 09:30:33;;;;;;;10.63;5.83;;;5.60;99.90;;;;;;5082938;28;20205;-67
2022/02/11 09:32:59;;;;;;;6.50;4.97;;;5.70;99.90;;;;;;5084540;28;20178;-69
2022/02/11 09:35:28;;;;;;;7.57;5.40;;;5.80;99.90;;;;;;5083129;28;20480;-70
2022/02/11 09:37:54;;;;;;;7.27;5.60;;;5.80;99.90;;;;;;5082927;28;20429;-70
2022/02/11 09:40:20;;;;;;;8.40;4.50;;;6.00;99.90;;;;;;5083982;28;20914;-69
2022/02/11 09:42:47;;;;;;;6.37;4.93;;;6.00;99.90;;;;;;5083172;28;20860;-68
2022/02/11 09:45:18;;;;;;;9.03;5.27;;;6.00;99.90;;;;;;5063203;28;20254;-69
2022/02/11 09:47:44;;;;;;;7.50;4.77;;;6.00;99.90;;;;;;5082895;28;20432;-71
2022/02/11 09:50:10;;;;;;;8.20;5.00;;;6.00;99.90;;;;;;5082345;28;20440;-69
2022/02/11 09:52:44;;;;;;;5.23;4.67;;;6.10;99.90;;;;;;5083255;28;20478;-71
2022/02/11 09:57:55;;;;;;;8.33;5.70;;;6.10;99.90;;;;;;5082113;28;20437;-68
2022/02/11 10:00:24;;;;;;;7.13;5.30;;;6.20;99.90;;;;;;5082802;28;20494;-68
2022/02/11 10:02:54;;;;;;;8.60;5.30;;;6.40;99.90;;;;;;5082487;28;20428;-71
2022/02/11 10:05:25;;;;;;;9.67;5.77;;;6.40;99.90;;;;;;5083058;28;20436;-69
2022/02/11 10:07:51;;;;;;;13.20;5.80;;;6.50;99.90;;;;;;5083435;28;20428;-69
2022/02/11 10:13:04;;;;;;;8.17;5.30;;;6.50;99.90;;;;;;5081842;28;20815;-69
2022/02/11 10:15:29;;;;;;;15.33;6.43;;;6.40;99.90;;;;;;5083827;28;20471;-69
2022/02/11 10:17:58;;;;;;;7.47;5.50;;;6.40;99.90;;;;;;5081313;28;20436;-71
2022/02/11 10:20:24;;;;;;;8.13;5.90;;;6.40;99.90;;;;;;5083125;28;20198;-72
2022/02/11 10:22:49;;;;;;;11.97;7.23;;;6.40;99.90;;;;;;5064948;28;20799;-72
2022/02/11 10:25:15;;;;;;;10.00;5.80;;;6.30;99.90;;;;;;5084332;28;20204;-72
2022/02/11 10:27:41;;;;;;;10.27;6.10;;;6.40;99.90;;;;;;5081332;28;20224;-69
2022/02/11 10:30:10;;;;;;;11.57;5.30;;;6.40;99.90;;;;;;5067766;28;21891;-68
2022/02/11 10:32:44;;;;;;;10.17;5.83;;;6.40;99.90;;;;;;5076714;28;20183;-71
2022/02/11 10:35:14;;;;;;;11.23;5.20;;;6.30;99.90;;;;;;5082382;28;20796;-72
2022/02/11 10:38:03;;;;;;;12.53;4.90;;;6.30;99.90;;;;;;5081261;28;20827;-71
2022/02/11 10:40:30;;;;;;;14.00;5.40;;;6.30;99.90;;;;;;5083445;28;20430;-70
2022/02/11 10:42:56;;;;;;;12.90;5.57;;;6.30;99.90;;;;;;5082575;28;20511;-71
2022/02/11 10:45:37;;;;;;;7.77;4.67;;;6.20;99.90;;;;;;5065539;28;20522;-72
2022/02/11 10:48:18;;;;;;;6.80;5.40;;;6.20;99.90;;;;;;5082924;28;20182;-72
2022/02/11 10:50:52;;;;;;;7.87;5.37;;;6.10;99.90;;;;;;5063465;28;20491;-72
2022/02/11 10:53:28;;;;;;;9.27;5.30;;;6.20;99.90;;;;;;5063756;28;21190;-72
2022/02/11 10:55:54;;;;;;;7.90;5.50;;;6.20;99.90;;;;;;5080057;28;20974;-71
2022/02/11 10:58:23;;;;;;;9.53;5.90;;;6.40;99.90;;;;;;5063421;28;20460;-72
2022/02/11 11:00:49;;;;;;;7.87;5.50;;;6.50;99.90;;;;;;5082141;28;20432;-70
2022/02/11 11:03:15;;;;;;;10.77;6.50;;;6.50;99.90;;;;;;5062461;28;20464;-70
2022/02/11 11:05:43;;;;;;;6.90;5.00;;;6.60;99.90;;;;;;5082346;28;20531;-71
2022/02/11 11:08:11;;;;;;;7.77;5.87;;;6.60;99.90;;;;;;5082240;28;20478;-69
2022/02/11 11:10:47;;;;;;;10.30;5.33;;;6.70;99.90;;;;;;5087131;28;20792;-70
2022/02/11 11:13:15;;;;;;;9.50;6.13;;;6.70;99.90;;;;;;5085042;28;20447;-70
2022/02/11 11:15:42;;;;;;;7.87;5.13;;;6.70;99.90;;;;;;5086524;28;20851;-70
2022/02/11 11:18:10;;;;;;;7.63;5.23;;;6.60;99.90;;;;;;5067578;28;20488;-69
2022/02/11 11:20:41;;;;;;;7.93;5.07;;;6.60;99.90;;;;;;5069015;28;20800;-72
2022/02/11 11:23:28;;;;;;;13.43;6.73;;;6.50;99.90;;;;;;5085224;28;20425;-71
2022/02/11 11:26:02;;;;;;;9.00;5.90;;;6.40;99.90;;;;;;5085980;28;20981;-67
2022/02/11 11:28:50;;;;;;;9.80;5.80;;;6.40;99.90;;;;;;5086136;28;21253;-68
2022/02/11 11:31:27;;;;;;;11.00;5.40;;;6.40;99.90;;;;;;5083642;28;20469;-67
2022/02/11 11:34:15;;;;;;;7.00;4.37;;;6.40;99.90;;;;;;5084662;28;20510;-67
2022/02/11 11:36:44;;;;;;;7.77;4.60;;;6.30;99.90;;;;;;5085966;28;20436;-67
2022/02/11 11:39:10;;;;;;;8.83;4.73;;;6.40;99.90;;;;;;5085784;28;20442;-67
2022/02/11 11:41:37;;;;;;;6.30;5.07;;;6.40;99.90;;;;;;5087649;28;20413;-67
2022/02/11 11:44:18;;;;;;;9.47;5.07;;;6.40;99.90;;;;;;5083458;28;20190;-68
2022/02/11 11:46:52;;;;;;;12.37;4.50;;;6.50;99.90;;;;;;5084894;28;20448;-70
2022/02/11 11:49:26;;;;;;;7.43;4.70;;;6.40;99.90;;;;;;5085150;28;20444;-68
2022/02/11 11:51:54;;;;;;;7.70;4.60;;;6.40;99.90;;;;;;5085730;28;20510;-70
2022/02/11 11:54:22;;;;;;;5.80;4.50;;;6.30;99.90;;;;;;5068078;28;20456;-69
2022/02/11 11:56:54;;;;;;;12.80;5.03;;;6.30;99.90;;;;;;5085387;28;20448;-69
2022/02/11 11:59:25;;;;;;;9.60;4.73;;;6.30;99.90;;;;;;5083571;28;20485;-71
2022/02/11 12:01:59;;;;;;;6.70;4.53;;;6.30;99.90;;;;;;5085442;28;20432;-69
2022/02/11 12:04:26;;;;;;;6.93;5.03;;;6.30;99.90;;;;;;5085731;28;20910;-69
2022/02/11 12:06:58;;;;;;;6.93;4.53;;;6.40;99.90;;;;;;5084323;28;20455;-68
2022/02/11 12:09:24;;;;;;;6.20;4.47;;;6.40;99.90;;;;;;5086260;28;21008;-70
2022/02/11 12:12:26;;;;;;;9.87;5.00;;;6.50;99.90;;;;;;5085010;28;20497;-70
2022/02/11 12:14:57;;;;;;;8.17;4.80;;;6.50;99.90;;;;;;5069060;28;20471;-68
2022/02/11 12:17:24;;;;;;;8.73;5.53;;;6.40;99.90;;;;;;5084771;28;20448;-69
2022/02/11 12:19:51;;;;;;;8.20;5.10;;;6.40;99.90;;;;;;5085937;28;20451;-69
2022/02/11 12:22:19;;;;;;;7.87;4.80;;;6.50;99.90;;;;;;5067159;28;20941;-69
2022/02/11 12:27:34;;;;;;;8.07;4.30;;;6.60;99.90;;;;;;5079168;28;20941;-68
2022/02/11 12:30:01;;;;;;;9.50;4.40;;;6.50;99.90;;;;;;5085342;28;20562;-69
2022/02/11 12:32:40;;;;;;;10.33;4.60;;;6.70;99.90;;;;;;5067287;28;20432;-69
2022/02/11 12:35:08;;;;;;;6.40;4.60;;;6.70;99.90;;;;;;5066332;28;20520;-68
2022/02/11 12:37:35;;;;;;;6.43;4.17;;;6.80;99.90;;;;;;5082523;28;20467;-71
2022/02/11 12:40:06;;;;;;;7.63;3.93;;;6.80;99.90;;;;;;5064535;28;20436;-69
2022/02/11 12:42:34;;;;;;;7.63;4.73;;;6.80;99.90;;;;;;5063497;28;20424;-70
2022/02/11 12:45:02;;;;;;;7.47;4.67;;;6.90;99.90;;;;;;5074811;28;20427;-70
2022/02/11 12:47:27;;;;;;;8.10;4.70;;;6.80;99.90;;;;;;5084029;28;20476;-67
2022/02/11 12:49:53;;;;;;;8.07;4.10;;;7.00;99.90;;;;;;5085118;28;20493;-68
2022/02/11 12:52:24;;;;;;;7.37;4.90;;;7.90;99.90;;;;;;5065333;28;20190;-71
2022/02/11 12:54:56;;;;;;;12.83;5.43;;;8.40;99.90;;;;;;5084956;28;20209;-70
2022/02/11 12:57:21;;;;;;;7.10;4.37;;;9.20;99.90;;;;;;5080900;28;20562;-71
2022/02/11 12:59:49;;;;;;;10.53;4.93;;;9.00;99.90;;;;;;5084482;28;20429;-71
2022/02/11 13:02:29;;;;;;;7.67;4.10;;;8.60;99.90;;;;;;5084363;28;20221;-71
2022/02/11 13:05:07;;;;;;;6.40;4.10;;;8.60;99.90;;;;;;5083837;28;20440;-69
2022/02/11 13:07:35;;;;;;;10.33;5.17;;;8.80;99.90;;;;;;5083209;28;20456;-71
2022/02/11 13:10:02;;;;;;;13.13;6.53;;;9.30;99.90;;;;;;5084216;28;20455;-71
2022/02/11 13:12:44;;;;;;;5.90;3.70;;;10.00;99.90;;;;;;5084526;28;20428;-69
2022/02/11 13:15:13;;;;;;;6.67;3.70;;;10.30;99.90;;;;;;5083879;28;20513;-68
2022/02/11 13:17:41;;;;;;;6.53;3.50;;;10.40;99.90;;;;;;5083499;28;20452;-71
2022/02/11 13:20:08;;;;;;;4.90;4.10;;;10.90;99.90;;;;;;5083675;28;20474;-70
2022/02/11 13:22:34;;;;;;;10.70;4.23;;;11.10;99.90;;;;;;5083444;28;20808;-69
2022/02/11 13:25:00;;;;;;;9.10;4.10;;;11.10;99.90;;;;;;5084866;28;20459;-68
2022/02/11 13:27:46;;;;;;;9.93;4.57;;;10.60;99.90;;;;;;5064644;28;20456;-68
2022/02/11 13:30:14;;;;;;;6.10;3.73;;;10.20;99.90;;;;;;5083899;28;20436;-67
2022/02/11 13:32:41;;;;;;;7.17;3.80;;;9.60;99.90;;;;;;5082301;28;20949;-69
2022/02/11 13:35:10;;;;;;;5.60;3.30;;;9.30;99.90;;;;;;5083358;28;20488;-68
2022/02/11 13:37:45;;;;;;;3.30;3.00;;;9.10;99.90;;;;;;5082626;28;20525;-68
2022/02/11 13:40:14;;;;;;;7.30;3.10;;;8.60;99.90;;;;;;5082864;28;20432;-68
2022/02/11 13:42:40;;;;;;;7.03;3.07;;;8.30;99.90;;;;;;5082743;28;20436;-70
2022/02/11 13:45:08;;;;;;;5.83;3.10;;;8.80;99.90;;;;;;5083106;28;20447;-70
2022/02/11 13:47:34;;;;;;;7.07;3.30;;;9.50;99.90;;;;;;5082032;28;20538;-67
2022/02/11 13:50:04;;;;;;;3.70;2.97;;;10.00;99.90;;;;;;5083945;28;20424;-67
2022/02/11 13:55:16;;;;;;;5.57;3.60;;;10.50;99.90;;;;;;5083597;28;20498;-69
2022/02/11 13:57:48;;;;;;;6.50;4.17;;;10.50;99.90;;;;;;5115872;22;20579;-76
2022/02/11 14:00:33;;;;;;;5.83;3.67;;;10.20;99.90;;;;;;5042343;28;20563;-77
2022/02/11 14:02:58;;;;;;;8.83;3.80;;;9.70;99.90;;;;;;5065518;28;20456;-76
2022/02/11 14:05:24;;;;;;;5.47;3.57;;;9.40;99.90;;;;;;5066693;28;20448;-77
2022/02/11 14:07:54;;;;;;;3.90;3.50;;;8.90;99.90;;;;;;5048786;28;20187;-77
2022/02/11 14:10:20;;;;;;;7.30;3.97;;;8.70;99.90;;;;;;5065738;28;20220;-76
2022/02/11 14:12:45;;;;;;;6.13;3.83;;;9.00;99.90;;;;;;5068860;28;20453;-77
2022/02/11 14:15:11;;;;;;;5.53;3.40;;;9.20;99.90;;;;;;5063724;28;20214;-77
2022/02/11 14:17:39;;;;;;;8.50;3.10;;;9.40;99.90;;;;;;5077928;28;20266;-76
2022/02/11 14:20:06;;;;;;;8.07;3.63;;;9.40;99.90;;;;;;5036215;28;20188;-77
2022/02/11 14:22:31;;;;;;;8.70;4.97;;;9.50;99.90;;;;;;5078695;28;20458;-77
2022/02/11 14:25:00;;;;;;;7.93;4.00;;;9.50;99.90;;;;;;5063452;28;20489;-77
2022/02/11 14:27:26;;;;;;;9.40;4.20;;;9.20;99.90;;;;;;5060146;28;20179;-77
2022/02/11 14:29:54;;;;;;;5.87;3.63;;;9.10;99.90;;;;;;5061711;28;20436;-77
2022/02/11 14:32:20;;;;;;;7.47;3.60;;;8.80;99.90;;;;;;5035571;28;20202;-77
2022/02/11 14:34:46;;;;;;;8.40;3.77;;;8.90;99.90;;;;;;5063577;28;20456;-77
2022/02/11 14:37:11;;;;;;;15.33;6.73;;;8.90;99.90;;;;;;5043818;28;20578;-76
2022/02/11 14:39:38;;;;;;;6.30;3.47;;;8.80;99.90;;;;;;5046142;28;21055;-76
2022/02/11 14:42:05;;;;;;;5.30;3.43;;;8.70;99.90;;;;;;5060978;28;20282;-76
2022/02/11 14:44:34;;;;;;;7.00;3.03;;;8.60;99.90;;;;;;5072548;28;20521;-76
2022/02/11 14:47:01;;;;;;;7.23;2.93;;;8.60;99.90;;;;;;5064365;28;20494;-77
2022/02/11 14:49:28;;;;;;;6.80;3.20;;;8.60;99.90;;;;;;5045874;28;20584;-76
2022/02/11 14:52:07;;;;;;;6.83;3.50;;;8.50;99.90;;;;;;5061206;28;20539;-77
2022/02/11 14:54:35;;;;;;;9.10;3.97;;;8.40;99.90;;;;;;5059329;28;20490;-75
2022/02/11 14:57:02;;;;;;;6.20;3.57;;;8.30;99.90;;;;;;5040724;28;20459;-76
2022/02/11 14:59:27;;;;;;;10.93;3.40;;;8.30;99.90;;;;;;5061057;28;20466;-75
2022/02/11 15:01:55;;;;;;;6.53;3.30;;;8.30;99.90;;;;;;5063719;28;20488;-77
2022/02/11 15:04:21;;;;;;;8.13;4.10;;;8.20;99.90;;;;;;5063492;28;20187;-77
2022/02/11 15:06:50;;;;;;;5.90;3.87;;;8.20;99.90;;;;;;5044294;28;21056;-76
2022/02/11 15:09:17;;;;;;;7.77;4.27;;;8.10;99.90;;;;;;5079201;28;20520;-76
2022/02/11 15:11:43;;;;;;;6.60;3.23;;;8.10;99.90;;;;;;5048514;28;20472;-78
2022/02/11 15:14:09;;;;;;;6.40;3.60;;;8.10;99.90;;;;;;5045650;28;20497;-77
2022/02/11 15:16:35;;;;;;;7.20;3.03;;;8.20;99.90;;;;;;5046693;28;20432;-77
2022/02/11 15:19:02;;;;;;;5.63;3.30;;;8.20;99.90;;;;;;5048199;28;20445;-77
2022/02/11 15:21:28;;;;;;;5.67;3.13;;;8.20;99.90;;;;;;5067390;28;20798;-77
2022/02/11 15:23:54;;;;;;;5.73;3.50;;;8.30;99.90;;;;;;5061002;28;20868;-77
2022/02/11 15:26:20;;;;;;;5.00;3.77;;;8.30;99.90;;;;;;5063670;28;20498;-77
2022/02/11 15:28:46;;;;;;;7.30;4.03;;;8.20;99.90;;;;;;5059800;28;20695;-76
2022/02/11 15:31:12;;;;;;;8.07;3.07;;;8.20;99.90;;;;;;5061311;28;20502;-73
2022/02/11 15:33:40;;;;;;;6.90;3.30;;;8.30;99.90;;;;;;5045512;28;20934;-75
2022/02/11 15:36:07;;;;;;;9.57;3.30;;;8.30;99.90;;;;;;5060644;28;20433;-75
2022/02/11 15:38:33;;;;;;;9.63;3.00;;;8.30;99.90;;;;;;5052107;28;20420;-76
2022/02/11 15:40:59;;;;;;;5.13;3.07;;;8.30;99.90;;;;;;5060692;28;20433;-76
2022/02/11 15:43:25;;;;;;;4.17;3.37;;;8.20;99.90;;;;;;5059233;28;20234;-77
2022/02/11 15:45:50;;;;;;;7.30;2.83;;;8.20;99.90;;;;;;5066475;28;21047;-77
2022/02/11 15:48:17;;;;;;;4.83;3.50;;;8.10;99.90;;;;;;5060652;28;20187;-77
2022/02/11 15:50:43;;;;;;;9.53;3.23;;;8.00;99.90;;;;;;5037131;28;20183;-77
2022/02/11 15:53:14;;;;;;;8.47;3.10;;;7.90;99.90;;;;;;5061732;28;20464;-76
2022/02/11 15:55:40;;;;;;;4.00;2.63;;;7.90;99.90;;;;;;5045760;28;20466;-76
2022/02/11 15:58:06;;;;;;;8.57;3.87;;;7.90;99.90;;;;;;5062959;28;20575;-75
2022/02/11 16:00:33;;;;;;;8.83;3.50;;;7.90;99.90;;;;;;5062164;28;20434;-77
2022/02/11 16:03:03;;;;;;;9.13;3.13;;;7.90;99.90;;;;;;5060701;28;20461;-75
2022/02/11 16:05:29;;;;;;;12.70;3.40;;;7.80;99.90;;;;;;5058620;28;20524;-77
2022/02/11 16:07:55;;;;;;;4.27;3.03;;;7.80;99.90;;;;;;5064058;28;20532;-76
2022/02/11 16:10:25;;;;;;;4.40;2.90;;;7.90;99.90;;;;;;5060361;28;20626;-77
2022/02/11 16:12:51;;;;;;;7.10;3.57;;;7.70;99.90;;;;;;5063618;28;20256;-75
2022/02/11 16:15:17;;;;;;;7.40;3.20;;;7.50;99.90;;;;;;5044072;28;20493;-74
2022/02/11 16:18:05;;;;;;;15.80;2.90;;;7.50;99.90;;;;;;5062995;28;20425;-75
2022/02/11 16:20:43;;;;;;;7.00;3.80;;;7.60;99.90;;;;;;5059154;28;20449;-76
2022/02/11 16:23:12;;;;;;;7.30;3.60;;;7.50;99.90;;;;;;5062958;28;20475;-76
2022/02/11 16:25:40;;;;;;;4.97;3.10;;;7.60;99.90;;;;;;5060268;28;20437;-76
2022/02/11 16:28:08;;;;;;;6.77;3.03;;;7.70;99.90;;;;;;5043944;28;20555;-77
2022/02/11 16:30:35;;;;;;;6.80;3.27;;;7.90;99.90;;;;;;5077590;28;20426;-77
2022/02/11 16:33:02;;;;;;;9.17;3.43;;;7.80;99.90;;;;;;5057029;28;20762;-76
2022/02/11 16:35:28;;;;;;;6.80;3.83;;;8.00;99.90;;;;;;5063086;28;20464;-77
2022/02/11 16:37:53;;;;;;;8.93;4.17;;;7.90;99.90;;;;;;5063101;28;21013;-77
2022/02/11 16:40:19;;;;;;;10.27;3.63;;;8.00;99.90;;;;;;5044574;28;20612;-77
2022/02/11 16:42:46;;;;;;;5.77;3.80;;;8.00;99.90;;;;;;5054558;28;20286;-77
2022/02/11 16:45:12;;;;;;;6.07;3.30;;;8.00;99.90;;;;;;5060309;28;20445;-77
2022/02/11 16:47:40;;;;;;;6.07;3.77;;;7.80;99.90;;;;;;5074334;28;20507;-78
2022/02/11 16:50:07;;;;;;;6.50;4.00;;;7.80;99.90;;;;;;5062689;28;20274;-77
2022/02/11 16:52:33;;;;;;;7.23;3.60;;;7.90;99.90;;;;;;5061069;28;20896;-78
2022/02/11 16:55:08;;;;;;;13.33;5.07;;;7.90;99.90;;;;;;5052708;28;20510;-78
2022/02/11 16:57:34;;;;;;;6.17;3.63;;;8.00;99.90;;;;;;5039622;28;20449;-77
2022/02/11 17:00:00;;;;;;;8.90;4.07;;;7.90;99.90;;;;;;5064774;22;20493;-73